createdAt,value
2019-05-14T00:02:41.255Z,9.90
2019-05-14T00:05:12.168Z,10.00
2019-05-14T00:08:06.737Z,10.00
2019-05-14T00:10:43.098Z,10.00
2019-05-14T00:13:14.748Z,9.90
2019-05-14T00:15:51.950Z,9.90
2019-05-14T00:18:32.948Z,9.90
2019-05-14T00:21:06.264Z,9.80
2019-05-14T00:23:38.280Z,9.80
2019-05-14T00:26:08.161Z,9.70
2019-05-14T00:28:37.071Z,9.80
2019-05-14T00:31:12.119Z,9.90
2019-05-14T00:33:42.802Z,9.90
2019-05-14T00:36:16.813Z,9.80
2019-05-14T00:38:51.270Z,9.80
2019-05-14T00:41:21.472Z,9.80
2019-05-14T00:43:51.374Z,9.80
2019-05-14T00:46:21.207Z,9.70
2019-05-14T00:48:51.456Z,9.80
2019-05-14T00:51:22.132Z,9.80
2019-05-14T00:53:55.071Z,9.80
2019-05-14T00:56:25.520Z,9.80
2019-05-14T00:58:58.813Z,9.80
2019-05-14T01:01:31.800Z,9.80
2019-05-14T01:04:01.296Z,9.70
2019-05-14T01:06:31.499Z,9.60
2019-05-14T01:09:01.331Z,9.70
2019-05-14T01:11:31.596Z,9.60
2019-05-14T01:14:01.694Z,9.60
2019-05-14T01:16:31.980Z,9.60
2019-05-14T01:19:03.154Z,9.60
2019-05-14T01:21:37.451Z,9.70
2019-05-14T01:24:08.346Z,9.50
2019-05-14T01:26:38.548Z,9.50
2019-05-14T01:29:08.064Z,9.50
2019-05-14T01:31:41.595Z,9.40
2019-05-14T01:34:11.189Z,9.50
2019-05-14T01:36:42.523Z,9.50
2019-05-14T01:39:12.063Z,9.50
2019-05-14T01:41:42.557Z,9.60
2019-05-14T01:44:32.039Z,9.50
2019-05-14T01:47:06.958Z,9.60
2019-05-14T01:49:36.628Z,9.50
2019-05-14T01:52:11.156Z,9.40
2019-05-14T01:54:42.676Z,9.30
2019-05-14T01:57:11.478Z,9.30
2019-05-14T01:59:42.838Z,9.30
2019-05-14T02:02:14.304Z,9.20
2019-05-14T02:04:42.967Z,9.30
2019-05-14T02:07:16.025Z,9.30
2019-05-14T02:09:46.287Z,9.30
2019-05-14T02:12:22.140Z,9.30
2019-05-14T02:14:56.071Z,9.20
2019-05-14T02:17:26.993Z,9.20
2019-05-14T02:19:58.800Z,9.10
2019-05-14T02:25:21.629Z,9.10
2019-05-14T02:27:52.244Z,9.10
2019-05-14T02:30:32.045Z,9.00
2019-05-14T02:32:50.484Z,9.20
2019-05-14T02:35:20.236Z,9.10
2019-05-14T02:37:50.379Z,9.10
2019-05-14T02:40:20.143Z,9.10
2019-05-14T02:42:49.726Z,9.10
2019-05-14T02:45:19.759Z,9.10
2019-05-14T02:47:54.346Z,9.10
2019-05-14T02:50:21.793Z,9.00
2019-05-14T02:52:59.605Z,9.00
2019-05-14T02:55:26.241Z,8.90
2019-05-14T02:57:59.838Z,9.00
2019-05-14T03:00:31.327Z,9.00
2019-05-14T03:03:01.548Z,9.20
2019-05-14T03:05:33.410Z,9.20
2019-05-14T03:08:02.572Z,9.20
2019-05-14T03:13:20.423Z,9.20
2019-05-14T03:15:49.837Z,9.10
2019-05-14T03:18:19.793Z,9.00
2019-05-14T03:20:50.268Z,9.00
2019-05-14T03:23:22.543Z,9.00
2019-05-14T03:25:52.919Z,8.80
2019-05-14T03:28:23.041Z,8.90
2019-05-14T03:30:53.068Z,8.80
2019-05-14T03:33:22.611Z,8.90
2019-05-14T03:36:01.361Z,9.00
2019-05-14T03:38:29.685Z,9.00
2019-05-14T03:41:09.342Z,8.90
2019-05-14T03:43:40.091Z,8.90
2019-05-14T03:46:12.244Z,8.90
2019-05-14T03:48:41.872Z,8.80
2019-05-14T03:51:14.845Z,8.80
2019-05-14T03:53:56.869Z,8.80
2019-05-14T03:56:13.076Z,8.70
2019-05-14T03:58:41.352Z,8.80
2019-05-14T04:01:11.748Z,8.80
2019-05-14T04:03:42.777Z,8.80
2019-05-14T04:06:13.327Z,8.80
2019-05-14T04:08:45.184Z,8.70
2019-05-14T04:11:14.688Z,8.60
2019-05-14T04:13:42.962Z,8.60
2019-05-14T04:16:35.612Z,8.60
2019-05-14T04:19:11.060Z,8.70
2019-05-14T04:21:41.262Z,8.70
2019-05-14T04:24:12.838Z,8.70
2019-05-14T04:26:58.289Z,8.70
2019-05-14T04:29:21.760Z,8.70
2019-05-14T04:31:50.788Z,8.70
2019-05-14T04:34:20.634Z,8.70
2019-05-14T04:36:50.465Z,8.70
2019-05-14T04:39:23.646Z,8.80
2019-05-14T04:41:52.200Z,8.60
2019-05-14T04:44:23.607Z,8.70
2019-05-14T04:46:54.677Z,8.60
2019-05-14T04:49:29.078Z,8.60
2019-05-14T04:51:59.656Z,8.70
2019-05-14T04:54:32.178Z,8.70
2019-05-14T04:57:03.818Z,8.60
2019-05-14T04:59:32.793Z,8.70
2019-05-14T05:02:03.096Z,8.70
2019-05-14T05:04:40.905Z,8.80
2019-05-14T05:07:09.899Z,8.80
2019-05-14T05:09:41.773Z,9.00
2019-05-14T05:12:12.741Z,9.00
2019-05-14T05:14:44.610Z,9.10
2019-05-14T05:17:19.590Z,9.10
2019-05-14T05:19:53.661Z,9.10
2019-05-14T05:22:22.326Z,9.10
2019-05-14T05:24:53.432Z,9.20
2019-05-14T05:27:24.715Z,9.20
2019-05-14T05:29:58.816Z,9.20
2019-05-14T05:32:30.507Z,9.20
2019-05-14T05:35:00.105Z,9.30
2019-05-14T05:37:29.383Z,9.20
2019-05-14T05:39:58.422Z,9.30
2019-05-14T05:42:29.300Z,9.30
2019-05-14T05:44:58.790Z,9.30
2019-05-14T05:47:28.731Z,9.50
2019-05-14T05:49:58.159Z,9.40
2019-05-14T05:52:28.255Z,9.40
2019-05-14T05:54:58.391Z,9.40
2019-05-14T05:57:28.595Z,9.40
2019-05-14T05:59:58.965Z,9.50
2019-05-14T06:02:28.935Z,9.60
2019-05-14T06:04:58.664Z,9.60
2019-05-14T06:07:28.811Z,9.70
2019-05-14T06:09:58.843Z,9.70
2019-05-14T06:12:29.523Z,9.80
2019-05-14T06:14:57.968Z,9.70
2019-05-14T06:17:28.448Z,9.80
2019-05-14T06:19:59.059Z,9.80
2019-05-14T06:22:28.037Z,9.90
2019-05-14T06:24:58.455Z,9.90
2019-05-14T06:27:28.564Z,9.80
2019-05-14T06:29:58.242Z,9.90
2019-05-14T06:32:28.863Z,9.80
2019-05-14T06:34:56.492Z,9.80
2019-05-14T06:37:24.743Z,9.90
2019-05-14T06:39:53.014Z,10.00
2019-05-14T06:42:21.266Z,10.10
2019-05-14T06:44:49.578Z,10.20
2019-05-14T06:47:19.788Z,10.20
2019-05-14T06:49:48.860Z,10.60
2019-05-14T06:52:18.948Z,11.10
2019-05-14T06:54:49.631Z,11.10
2019-05-14T06:57:18.025Z,11.00
2019-05-14T06:59:48.416Z,11.00
2019-05-14T07:02:19.144Z,10.90
2019-05-14T07:04:48.415Z,10.90
2019-05-14T07:07:20.346Z,11.00
2019-05-14T07:09:48.844Z,11.10
2019-05-14T07:12:19.117Z,11.10
2019-05-14T07:14:48.149Z,11.10
2019-05-14T07:17:18.373Z,11.20
2019-05-14T07:19:49.059Z,11.40
2019-05-14T07:22:19.612Z,11.50
2019-05-14T07:24:49.794Z,11.50
2019-05-14T07:27:19.282Z,11.60
2019-05-14T07:29:49.151Z,11.70
2019-05-14T07:32:19.144Z,11.90
2019-05-14T07:34:48.233Z,12.10
2019-05-14T07:37:18.049Z,12.30
2019-05-14T07:39:48.669Z,12.30
2019-05-14T07:42:18.317Z,12.40
2019-05-14T07:44:48.557Z,12.20
2019-05-14T07:47:18.678Z,12.30
2019-05-14T07:49:48.778Z,12.40
2019-05-14T07:52:19.510Z,12.40
2019-05-14T07:54:48.415Z,12.50
2019-05-14T07:57:18.958Z,12.60
2019-05-14T07:59:48.387Z,12.80
2019-05-14T08:02:19.371Z,12.80
2019-05-14T08:04:48.676Z,12.80
2019-05-14T08:07:17.985Z,13.00
2019-05-14T08:09:48.050Z,13.20
2019-05-14T08:12:19.181Z,13.40
2019-05-14T08:15:02.212Z,13.30
2019-05-14T08:17:18.845Z,13.20
2019-05-14T08:19:48.925Z,13.50
2019-05-14T08:22:18.539Z,14.00
2019-05-14T08:24:48.938Z,14.00
2019-05-14T08:27:19.026Z,13.70
2019-05-14T08:29:48.630Z,13.80
2019-05-14T08:32:19.074Z,13.90
2019-05-14T08:34:48.038Z,13.90
2019-05-14T08:37:18.899Z,14.00
2019-05-14T08:39:48.656Z,13.90
2019-05-14T08:42:18.517Z,14.00
2019-05-14T08:44:50.916Z,14.20
2019-05-14T08:47:18.326Z,14.30
2019-05-14T08:49:50.457Z,14.40
2019-05-14T08:52:19.008Z,14.60
2019-05-14T08:54:49.036Z,14.30
2019-05-14T08:57:19.017Z,14.30
2019-05-14T08:59:48.637Z,14.50
2019-05-14T09:02:16.534Z,14.50
2019-05-14T09:04:44.826Z,14.50
2019-05-14T09:07:13.075Z,14.50
2019-05-14T09:09:41.444Z,14.50
2019-05-14T09:12:12.387Z,14.60
2019-05-14T09:14:40.078Z,14.70
2019-05-14T09:17:09.854Z,14.40
2019-05-14T09:19:40.865Z,14.60
2019-05-14T09:22:09.553Z,14.80
2019-05-14T09:24:38.804Z,14.70
2019-05-14T09:27:08.435Z,15.00
2019-05-14T09:29:39.335Z,15.20
2019-05-14T09:32:09.334Z,15.20
2019-05-14T09:34:39.318Z,15.30
2019-05-14T09:37:08.580Z,15.40
2019-05-14T09:39:38.607Z,15.60
2019-05-14T09:42:08.138Z,15.70
2019-05-14T09:44:38.654Z,15.60
2019-05-14T09:47:08.491Z,15.50
2019-05-14T09:49:38.835Z,15.70
2019-05-14T09:52:09.042Z,15.30
2019-05-14T09:54:41.475Z,15.20
2019-05-14T09:57:08.340Z,15.40
2019-05-14T09:59:38.492Z,15.40
2019-05-14T10:02:08.973Z,15.70
2019-05-14T10:04:39.168Z,15.80
2019-05-14T10:07:08.716Z,16.10
2019-05-14T10:09:39.044Z,16.10
2019-05-14T10:12:08.986Z,15.80
2019-05-14T10:14:39.263Z,16.00
2019-05-14T10:17:07.187Z,15.90
2019-05-14T10:19:35.445Z,16.10
2019-05-14T10:22:03.733Z,16.20
2019-05-14T10:24:32.076Z,15.80
2019-05-14T10:27:00.424Z,15.90
2019-05-14T10:29:29.663Z,15.90
2019-05-14T10:31:59.216Z,16.20
2019-05-14T10:34:28.737Z,16.50
2019-05-14T10:36:59.056Z,16.40
2019-05-14T10:39:29.817Z,16.70
2019-05-14T10:41:57.304Z,16.70
2019-05-14T10:44:29.137Z,16.70
2019-05-14T10:46:57.881Z,16.80
2019-05-14T10:49:25.868Z,17.00
2019-05-14T10:51:54.124Z,16.90
2019-05-14T10:54:25.869Z,17.00
2019-05-14T10:56:52.397Z,17.10
2019-05-14T10:59:22.236Z,16.90
2019-05-14T11:01:51.557Z,17.00
2019-05-14T11:04:20.146Z,17.00
2019-05-14T11:06:49.182Z,16.70
2019-05-14T11:09:18.432Z,17.20
2019-05-14T11:11:46.732Z,17.10
2019-05-14T11:14:15.265Z,17.30
2019-05-14T11:16:43.540Z,17.60
2019-05-14T11:19:13.870Z,17.60
2019-05-14T11:21:42.131Z,17.60
2019-05-14T11:24:10.413Z,17.40
2019-05-14T11:26:39.281Z,17.60
2019-05-14T11:29:07.741Z,17.80
2019-05-14T11:31:38.861Z,18.00
2019-05-14T11:34:08.283Z,18.30
2019-05-14T11:36:38.857Z,18.40
2019-05-14T11:39:09.410Z,18.00
2019-05-14T11:41:38.891Z,18.20
2019-05-14T11:44:09.141Z,18.30
2019-05-14T11:46:47.183Z,18.10
2019-05-14T11:49:08.860Z,18.00
2019-05-14T11:51:59.473Z,18.20
2019-05-14T11:54:09.604Z,18.70
2019-05-14T11:56:58.943Z,18.80
2019-05-14T11:59:28.507Z,18.60
2019-05-14T12:01:59.341Z,18.70
2019-05-14T12:04:28.430Z,18.70
2019-05-14T12:06:59.124Z,18.80
2019-05-14T12:09:28.395Z,18.70
2019-05-14T12:11:58.698Z,18.30
2019-05-14T12:14:26.868Z,18.60
2019-05-14T12:16:55.215Z,18.60
2019-05-14T12:19:23.675Z,18.60
2019-05-14T12:22:06.232Z,18.20
2019-05-14T12:24:22.035Z,18.30
2019-05-14T12:26:50.440Z,18.20
2019-05-14T12:29:18.791Z,17.90
2019-05-14T12:31:50.490Z,18.10
2019-05-14T12:34:18.542Z,18.30
2019-05-14T12:36:49.289Z,19.00
2019-05-14T12:39:18.747Z,18.90
2019-05-14T12:41:49.370Z,18.80
2019-05-14T12:44:19.634Z,18.70
2019-05-14T12:46:48.929Z,19.00
2019-05-14T12:49:18.739Z,19.30
2019-05-14T12:51:49.373Z,19.40
2019-05-14T12:54:19.725Z,19.10
2019-05-14T12:56:49.375Z,19.00
2019-05-14T12:59:17.241Z,18.90
2019-05-14T13:01:45.495Z,19.10
2019-05-14T13:04:13.764Z,19.40
2019-05-14T13:06:42.986Z,19.40
2019-05-14T13:09:12.894Z,19.60
2019-05-14T13:11:41.716Z,19.60
2019-05-14T13:14:10.081Z,19.40
2019-05-14T13:16:39.653Z,19.40
2019-05-14T13:19:09.202Z,19.50
2019-05-14T13:21:38.920Z,19.40
2019-05-14T13:24:08.884Z,19.40
2019-05-14T13:26:38.985Z,19.90
2019-05-14T13:29:10.952Z,19.80
2019-05-14T13:31:40.623Z,19.80
2019-05-14T13:34:09.080Z,19.80
2019-05-14T13:36:40.108Z,19.70
2019-05-14T13:39:09.233Z,19.30
2019-05-14T13:41:41.526Z,19.30
2019-05-14T13:44:18.442Z,19.60
2019-05-14T13:46:37.402Z,20.00
2019-05-14T13:49:05.729Z,19.50
2019-05-14T13:51:34.113Z,19.30
2019-05-14T13:54:02.776Z,19.40
2019-05-14T13:56:32.666Z,19.40
2019-05-14T13:59:00.970Z,19.40
2019-05-14T14:01:29.689Z,19.00
2019-05-14T14:04:10.181Z,19.00
2019-05-14T14:06:28.720Z,18.90
2019-05-14T14:08:59.304Z,18.60
2019-05-14T14:11:31.103Z,18.40
2019-05-14T14:13:58.514Z,18.40
2019-05-14T14:16:28.814Z,18.40
2019-05-14T14:19:02.608Z,18.30
2019-05-14T14:21:29.953Z,18.40
2019-05-14T14:23:59.425Z,18.20
2019-05-14T14:26:29.119Z,18.10
2019-05-14T14:28:59.981Z,18.00
2019-05-14T14:31:28.447Z,18.00
2019-05-14T14:33:56.885Z,18.00
2019-05-14T14:36:25.286Z,18.00
2019-05-14T14:38:53.569Z,17.90
2019-05-14T14:41:21.911Z,17.80
2019-05-14T14:43:53.883Z,17.70
2019-05-14T14:46:22.497Z,17.60
2019-05-14T14:48:50.761Z,17.50
2019-05-14T14:51:19.571Z,17.50
2019-05-14T14:53:58.806Z,17.60
2019-05-14T14:56:18.892Z,17.40
2019-05-14T14:58:49.377Z,17.30
2019-05-14T15:01:19.543Z,17.30
2019-05-14T15:03:49.679Z,17.10
2019-05-14T15:06:17.464Z,17.30
2019-05-14T15:08:45.725Z,17.20
2019-05-14T15:11:13.986Z,17.10
2019-05-14T15:13:42.332Z,17.20
2019-05-14T15:16:13.387Z,17.20
2019-05-14T15:18:40.588Z,17.20
2019-05-14T15:21:09.723Z,17.10
2019-05-14T15:23:42.989Z,17.10
2019-05-14T15:26:12.007Z,17.00
2019-05-14T15:28:38.775Z,17.00
2019-05-14T15:31:08.745Z,17.10
2019-05-14T15:33:37.650Z,17.00
2019-05-14T15:36:08.806Z,16.90
2019-05-14T15:38:36.096Z,16.70
2019-05-14T15:41:04.650Z,17.00
2019-05-14T15:43:34.520Z,16.90
2019-05-14T15:46:02.835Z,16.90
2019-05-14T15:48:31.095Z,16.80
2019-05-14T15:51:00.083Z,16.90
2019-05-14T15:53:29.141Z,17.00
2019-05-14T15:55:57.625Z,16.90
2019-05-14T15:58:25.995Z,16.80
2019-05-14T16:00:54.272Z,16.70
2019-05-14T16:03:22.537Z,16.70
2019-05-14T16:05:50.812Z,16.80
2019-05-14T16:08:22.916Z,16.70
2019-05-14T16:10:49.038Z,16.60
2019-05-14T16:13:20.878Z,16.70
2019-05-14T16:15:48.402Z,16.60
2019-05-14T16:18:21.631Z,16.60
2019-05-14T16:20:49.674Z,16.60
2019-05-14T16:23:18.794Z,16.70
2019-05-14T16:25:48.292Z,16.50
2019-05-14T16:28:19.336Z,16.50
2019-05-14T16:30:49.621Z,16.60
2019-05-14T16:33:18.585Z,16.70
2019-05-14T16:35:50.113Z,16.60
2019-05-14T16:38:23.007Z,16.60
2019-05-14T16:40:49.978Z,16.40
2019-05-14T16:43:22.501Z,16.30
2019-05-14T16:45:50.816Z,16.40
2019-05-14T16:48:19.076Z,16.40
2019-05-14T16:50:48.981Z,16.50
2019-05-14T16:53:19.435Z,16.40
2019-05-14T16:55:48.902Z,16.50
2019-05-14T16:58:19.451Z,16.40
2019-05-14T17:00:50.435Z,16.50
2019-05-14T17:03:19.198Z,16.50
2019-05-14T17:05:48.741Z,16.50
2019-05-14T17:08:19.042Z,16.40
2019-05-14T17:10:48.254Z,16.20
2019-05-14T17:13:17.919Z,16.30
2019-05-14T17:15:48.156Z,16.30
2019-05-14T17:18:19.125Z,16.20
2019-05-14T17:20:48.752Z,16.20
2019-05-14T17:23:19.116Z,16.20
2019-05-14T17:25:48.583Z,16.20
2019-05-14T17:28:16.683Z,16.20
2019-05-14T17:30:44.995Z,16.20
2019-05-14T17:33:13.271Z,16.10
2019-05-14T17:35:41.544Z,16.10
2019-05-14T17:38:09.812Z,16.20
2019-05-14T17:40:39.645Z,16.20
2019-05-14T17:43:08.811Z,16.20
2019-05-14T17:45:39.040Z,16.10
2019-05-14T17:48:07.212Z,16.10
2019-05-14T17:50:38.210Z,16.10
2019-05-14T17:53:05.714Z,16.00
2019-05-14T17:55:44.560Z,16.00
2019-05-14T17:58:04.180Z,16.10
2019-05-14T18:00:32.521Z,16.00
2019-05-14T18:03:00.884Z,16.00
2019-05-14T18:05:29.291Z,15.90
2019-05-14T18:07:59.337Z,15.80
2019-05-14T18:10:28.507Z,15.90
2019-05-14T18:12:59.743Z,15.90
2019-05-14T18:15:29.200Z,15.80
2019-05-14T18:17:58.931Z,15.70
2019-05-14T18:20:28.671Z,15.70
2019-05-14T18:22:58.273Z,15.70
2019-05-14T18:25:29.136Z,15.60
2019-05-14T18:27:57.084Z,15.60
2019-05-14T18:30:25.343Z,15.60
2019-05-14T18:32:53.605Z,15.60
2019-05-14T18:35:21.902Z,15.60
2019-05-14T18:37:50.327Z,15.50
2019-05-14T18:40:18.589Z,15.40
2019-05-14T18:42:48.093Z,15.40
2019-05-14T18:45:18.971Z,15.30
2019-05-14T18:47:48.492Z,15.30
2019-05-14T18:50:19.380Z,15.30
2019-05-14T18:52:48.521Z,15.30
2019-05-14T18:55:18.675Z,15.20
2019-05-14T18:57:48.710Z,15.10
2019-05-14T19:00:18.614Z,15.20
2019-05-14T19:02:48.230Z,15.10
2019-05-14T19:05:18.265Z,15.00
2019-05-14T19:07:48.715Z,14.90
2019-05-14T19:10:18.549Z,14.90
2019-05-14T19:12:51.488Z,14.90
2019-05-14T19:15:18.508Z,14.90
2019-05-14T19:17:48.897Z,14.90
2019-05-14T19:20:19.077Z,14.90
2019-05-14T19:22:49.030Z,14.80
2019-05-14T19:25:18.570Z,14.80
2019-05-14T19:27:48.753Z,14.70
2019-05-14T19:30:19.166Z,14.70
2019-05-14T19:32:48.500Z,14.60
2019-05-14T19:35:19.252Z,14.50
2019-05-14T19:37:48.715Z,14.60
2019-05-14T19:40:18.954Z,14.60
2019-05-14T19:42:48.526Z,14.60
2019-05-14T19:45:16.962Z,14.50
2019-05-14T19:47:45.215Z,14.50
2019-05-14T19:50:13.585Z,14.40
2019-05-14T19:52:41.910Z,14.30
2019-05-14T19:55:10.167Z,14.30
2019-05-14T19:57:38.599Z,14.40
2019-05-14T20:00:09.156Z,14.40
2019-05-14T20:02:37.504Z,14.40
2019-05-14T20:05:09.100Z,14.30
2019-05-14T20:07:38.668Z,14.20
2019-05-14T20:10:08.953Z,14.20
2019-05-14T20:12:39.583Z,14.10
2019-05-14T20:15:09.349Z,13.90
2019-05-14T20:17:38.440Z,14.00
2019-05-14T20:20:08.814Z,14.00
2019-05-14T20:22:39.297Z,13.90
2019-05-14T20:25:07.781Z,13.80
2019-05-14T20:27:38.670Z,13.80
2019-05-14T20:30:12.127Z,13.80
2019-05-14T20:32:44.151Z,13.70
2019-05-14T20:35:11.628Z,13.70
2019-05-14T20:37:39.900Z,13.60
2019-05-14T20:40:08.373Z,13.60
2019-05-14T20:42:39.310Z,13.60
2019-05-14T20:45:07.940Z,13.60
2019-05-14T20:47:38.711Z,13.60
2019-05-14T20:50:08.723Z,13.60
2019-05-14T20:52:37.076Z,13.40
2019-05-14T20:55:09.180Z,13.40
2019-05-14T20:57:38.312Z,13.20
2019-05-14T21:00:12.886Z,13.20
2019-05-14T21:02:41.414Z,13.30
2019-05-14T21:05:13.510Z,13.20
2019-05-14T21:07:40.890Z,13.20
2019-05-14T21:10:09.370Z,13.10
2019-05-14T21:12:39.462Z,13.00
2019-05-14T21:15:08.944Z,13.00
2019-05-14T21:17:38.912Z,13.00
2019-05-14T21:20:09.025Z,13.00
2019-05-14T21:22:39.644Z,13.00
2019-05-14T21:25:11.212Z,12.90
2019-05-14T21:27:44.835Z,12.90
2019-05-14T21:30:09.275Z,12.80
2019-05-14T21:32:39.169Z,12.60
2019-05-14T21:35:07.862Z,12.70
2019-05-14T21:37:36.802Z,12.60
2019-05-14T21:40:09.561Z,12.60
2019-05-14T21:42:38.667Z,12.50
2019-05-14T21:45:09.694Z,12.40
2019-05-14T21:47:38.799Z,12.40
2019-05-14T21:50:09.072Z,12.50
2019-05-14T21:52:39.182Z,12.40
2019-05-14T21:55:08.593Z,12.30
2019-05-14T21:57:38.256Z,12.30
2019-05-14T22:00:10.546Z,12.30
2019-05-14T22:02:38.937Z,12.30
2019-05-14T22:05:09.561Z,12.30
2019-05-14T22:07:38.920Z,12.30
2019-05-14T22:10:08.085Z,12.20
2019-05-14T22:12:37.266Z,12.20
2019-05-14T22:15:08.421Z,12.20
2019-05-14T22:17:38.186Z,12.30
2019-05-14T22:20:08.274Z,12.20
2019-05-14T22:22:39.146Z,12.20
2019-05-14T22:25:07.143Z,12.00
2019-05-14T22:27:35.848Z,11.90
2019-05-14T22:30:08.456Z,12.00
2019-05-14T22:32:38.450Z,12.00
2019-05-14T22:35:10.498Z,12.00
2019-05-14T22:37:39.168Z,12.00
2019-05-14T22:40:08.737Z,12.00
2019-05-14T22:42:39.269Z,12.00
2019-05-14T22:45:09.314Z,11.80
2019-05-14T22:47:40.278Z,12.00
2019-05-14T22:50:09.036Z,11.90
2019-05-14T22:52:38.904Z,11.90
2019-05-14T22:55:07.842Z,11.80
2019-05-14T22:57:39.374Z,11.80
2019-05-14T23:00:08.624Z,11.80
2019-05-14T23:02:38.154Z,11.70
2019-05-14T23:05:08.292Z,11.80
2019-05-14T23:07:38.380Z,11.70
2019-05-14T23:10:08.930Z,11.60
2019-05-14T23:12:38.649Z,11.60
2019-05-14T23:15:07.602Z,11.70
2019-05-14T23:17:35.989Z,11.70
2019-05-14T23:20:05.683Z,11.60
2019-05-14T23:22:34.190Z,11.60
2019-05-14T23:25:02.559Z,11.60
2019-05-14T23:27:31.545Z,11.60
2019-05-14T23:30:00.059Z,11.50
2019-05-14T23:32:28.779Z,11.60
2019-05-14T23:34:58.446Z,11.50
2019-05-14T23:37:29.148Z,11.50
2019-05-14T23:39:58.548Z,11.50
2019-05-14T23:42:27.958Z,11.60
2019-05-14T23:44:58.559Z,11.50
2019-05-14T23:47:28.813Z,11.40
2019-05-14T23:49:58.419Z,11.30
2019-05-14T23:52:29.337Z,11.30
2019-05-14T23:54:56.995Z,11.40
2019-05-14T23:57:25.388Z,11.40
2019-05-14T23:59:53.769Z,11.30
